Map

Track Data

SID SEASON NUMBER BASIN SUBBASIN NAME ISO_TIME NATURE LAT LON WMO_WIND WMO_PRES WMO_AGENCY TRACK_TYPE DIST2LAND LANDFALL IFLAG USA_AGENCY USA_ATCF_ID USA_LAT USA_LON USA_RECORD USA_STATUS USA_WIND USA_PRES USA_SSHS USA_R34_NE USA_R34_SE USA_R34_SW USA_R34_NW USA_R50_NE USA_R50_SE USA_R50_SW USA_R50_NW USA_R64_NE USA_R64_SE USA_R64_SW USA_R64_NW USA_POCI USA_ROCI USA_RMW USA_EYE TOKYO_LAT TOKYO_LON TOKYO_GRADE TOKYO_WIND TOKYO_PRES TOKYO_R50_DIR TOKYO_R50_LONG TOKYO_R50_SHORT TOKYO_R30_DIR TOKYO_R30_LONG TOKYO_R30_SHORT TOKYO_LAND CMA_LAT CMA_LON CMA_CAT CMA_WIND CMA_PRES HKO_LAT HKO_LON HKO_CAT HKO_WIND HKO_PRES NEWDELHI_LAT NEWDELHI_LON NEWDELHI_GRADE NEWDELHI_WIND NEWDELHI_PRES NEWDELHI_CI NEWDELHI_DP NEWDELHI_POCI REUNION_LAT REUNION_LON REUNION_TYPE REUNION_WIND REUNION_PRES REUNION_TNUM REUNION_CI REUNION_RMW REUNION_R34_NE REUNION_R34_SE REUNION_R34_SW REUNION_R34_NW REUNION_R50_NE REUNION_R50_SE REUNION_R50_SW REUNION_R50_NW REUNION_R64_NE REUNION_R64_SE REUNION_R64_SW REUNION_R64_NW BOM_LAT BOM_LON BOM_TYPE BOM_WIND BOM_PRES BOM_TNUM BOM_CI BOM_RMW BOM_R34_NE BOM_R34_SE BOM_R34_SW BOM_R34_NW BOM_R50_NE BOM_R50_SE BOM_R50_SW BOM_R50_NW BOM_R64_NE BOM_R64_SE BOM_R64_SW BOM_R64_NW BOM_ROCI BOM_POCI BOM_EYE BOM_POS_METHOD BOM_PRES_METHOD NADI_LAT NADI_LON NADI_CAT NADI_WIND NADI_PRES WELLINGTON_LAT WELLINGTON_LON WELLINGTON_WIND WELLINGTON_PRES DS824_LAT DS824_LON DS824_STAGE DS824_WIND DS824_PRES TD9636_LAT TD9636_LON TD9636_STAGE TD9636_WIND TD9636_PRES TD9635_LAT TD9635_LON TD9635_WIND TD9635_PRES TD9635_ROCI NEUMANN_LAT NEUMANN_LON NEUMANN_CLASS NEUMANN_WIND NEUMANN_PRES MLC_LAT MLC_LON MLC_CLASS MLC_WIND MLC_PRES USA_GUST BOM_GUST BOM_GUST_PER REUNION_GUST REUNION_GUST_PER USA_SEAHGT USA_SEARAD_NE USA_SEARAD_SE USA_SEARAD_SW USA_SEARAD_NW STORM_SPEED STORM_DIR
1912246N16123 1912 41 WP MM NOT_NAMED 1912-09-01 16:00:00 NR 16.3000 122.900 main 72 0 __________O___ -1 16.3000 122.900 2 20 287
1912246N16123 1912 41 WP MM NOT_NAMED 1912-09-01 18:00:00 NR 16.4895 122.242 main 0 0 __________P___ -1 16.4895 122.242 2 19 287
1912246N16123 1912 41 WP MM NOT_NAMED 1912-09-01 21:00:00 NR 16.7567 121.295 main 0 0 __________P___ -1 16.7567 121.295 2 18 286
1912246N16123 1912 41 WP MM NOT_NAMED 1912-09-02 00:00:00 NR 16.9859 120.451 main 0 10 __________P___ -1 16.9859 120.451 2 15 285
1912246N16123 1912 41 WP MM NOT_NAMED 1912-09-02 03:00:00 NR 17.1583 119.776 main 63 74 __________P___ -1 17.1583 119.776 2 13 285
1912246N16123 1912 41 WP MM NOT_NAMED 1912-09-02 04:00:00 NR 17.2000 119.600 main 84 84 __________O___ -1 17.2000 119.600 2 9 283
1912246N16123 1912 41 WP MM NOT_NAMED 1912-09-02 06:00:00 NR 17.2580 119.328 main 111 111 __________P___ -1 17.2580 119.328 2 6 281
1912246N16123 1912 41 WP MM NOT_NAMED 1912-09-02 09:00:00 NR 17.2962 119.079 main 131 131 __________P___ -1 17.2962 119.079 2 4 277
1912246N16123 1912 41 WP MM NOT_NAMED 1912-09-02 12:00:00 NR 17.3003 118.946 main 147 147 __________P___ -1 17.3003 118.946 2 2 270
1912246N16123 1912 41 WP MM NOT_NAMED 1912-09-02 15:00:00 NR 17.2977 118.842 main 154 154 __________P___ -1 17.2977 118.842 2 2 270
1912246N16123 1912 41 WP MM NOT_NAMED 1912-09-02 16:00:00 NR 17.3000 118.800 main 154 154 __________O___ -1 17.3000 118.800 2 4 279
1912246N16123 1912 41 WP MM NOT_NAMED 1912-09-02 18:00:00 NR 17.3276 118.650 main 161 169 __________P___ -1 17.3276 118.650 2 5 281
1912246N16123 1912 41 WP MM NOT_NAMED 1912-09-02 21:00:00 NR 17.3752 118.412 main 193 193 __________P___ -1 17.3752 118.412 2 5 282
1912246N16123 1912 41 WP MM NOT_NAMED 1912-09-03 00:00:00 NR 17.4278 118.160 main 210 218 __________P___ -1 17.4278 118.160 2 5 282
1912246N16123 1912 41 WP MM NOT_NAMED 1912-09-03 03:00:00 NR 17.4820 117.892 main 242 242 __________P___ -1 17.4820 117.892 2 5 282
1912246N16123 1912 41 WP MM NOT_NAMED 1912-09-03 04:00:00 NR 17.5000 117.800 main 251 251 __________O___ -1 17.5000 117.800 2 6 280
1912246N16123 1912 41 WP MM NOT_NAMED 1912-09-03 06:00:00 NR 17.5308 117.601 main 269 269 __________P___ -1 17.5308 117.601 2 6 279
1912246N16123 1912 41 WP MM NOT_NAMED 1912-09-03 09:00:00 NR 17.5769 117.289 main 303 303 __________P___ -1 17.5769 117.289 2 6 279
1912246N16123 1912 41 WP MM NOT_NAMED 1912-09-03 12:00:00 NR 17.6256 116.979 main 331 331 __________P___ -1 17.6256 116.979 2 6 280
1912246N16123 1912 41 WP MM NOT_NAMED 1912-09-03 15:00:00 NR 17.6800 116.689 main 365 365 __________P___ -1 17.6800 116.689 2 6 282
1912246N16123 1912 41 WP MM NOT_NAMED 1912-09-03 16:00:00 NR 17.7000 116.600 main 374 374 __________O___ -1 17.7000 116.600 2 5 285
1912246N16123 1912 41 WP MM NOT_NAMED 1912-09-03 18:00:00 NR 17.7414 116.452 main 384 394 __________P___ -1 17.7414 116.452 2 4 288
1912246N16123 1912 41 WP MM NOT_NAMED 1912-09-03 21:00:00 NR 17.8100 116.254 main 408 417 __________P___ -1 17.8100 116.254 2 4 292
1912246N16123 1912 41 WP MM NOT_NAMED 1912-09-04 00:00:00 NR 17.8863 116.068 main 432 432 __________P___ -1 17.8863 116.068 2 4 294
1912246N16123 1912 41 WP MM NOT_NAMED 1912-09-04 03:00:00 NR 17.9703 115.872 main 456 456 __________P___ -1 17.9703 115.872 2 4 294
1912246N16123 1912 41 WP MM NOT_NAMED 1912-09-04 04:00:00 NR 18.0000 115.800 main 465 465 __________O___ -1 18.0000 115.800 2 5 290
1912246N16123 1912 41 WP MM NOT_NAMED 1912-09-04 06:00:00 NR 18.0532 115.626 main 488 481 __________P___ -1 18.0532 115.626 2 5 288
1912246N16123 1912 41 WP MM NOT_NAMED 1912-09-04 09:00:00 NR 18.1390 115.346 main 481 458 __________P___ -1 18.1390 115.346 2 6 289
1912246N16123 1912 41 WP MM NOT_NAMED 1912-09-04 12:00:00 NR 18.2377 115.059 main 458 421 __________P___ -1 18.2377 115.059 2 6 292
1912246N16123 1912 41 WP MM NOT_NAMED 1912-09-04 15:00:00 NR 18.3554 114.785 main 421 411 __________P___ -1 18.3554 114.785 2 6 295
1912246N16123 1912 41 WP MM NOT_NAMED 1912-09-04 16:00:00 NR 18.4000 114.700 main 411 397 __________O___ -1 18.4000 114.700 2 5 301
1912246N16123 1912 41 WP MM NOT_NAMED 1912-09-04 18:00:00 NR 18.4809 114.565 main 397 374 __________P___ -1 18.4809 114.565 2 5 306
1912246N16123 1912 41 WP MM NOT_NAMED 1912-09-04 21:00:00 NR 18.6209 114.382 main 374 347 __________P___ -1 18.6209 114.382 2 5 312
1912246N16123 1912 41 WP MM NOT_NAMED 1912-09-05 00:00:00 NR 18.7945 114.197 main 347 321 __________P___ -1 18.7945 114.197 2 5 316
1912246N16123 1912 41 WP MM NOT_NAMED 1912-09-05 03:00:00 NR 19.0143 113.983 main 321 309 __________P___ -1 19.0143 113.983 2 6 317
1912246N16123 1912 41 WP MM NOT_NAMED 1912-09-05 04:00:00 NR 19.1000 113.900 main 309 285 __________O___ -1 19.1000 113.900 3 8 318
1912246N16123 1912 41 WP MM NOT_NAMED 1912-09-05 06:00:00 NR 19.2985 113.714 main 285 251 __________P___ -1 19.2985 113.714 3 9 319
1912246N16123 1912 41 WP MM NOT_NAMED 1912-09-05 09:00:00 NR 19.6405 113.398 main 251 203 __________P___ -1 19.6405 113.398 3 10 318
1912246N16123 1912 41 WP MM NOT_NAMED 1912-09-05 12:00:00 NR 20.0108 113.039 main 203 148 __________P___ -1 20.0108 113.039 3 10 316
1912246N16123 1912 41 WP MM NOT_NAMED 1912-09-05 15:00:00 NR 20.3813 112.641 main 148 135 __________P___ -1 20.3813 112.641 3 11 314
1912246N16123 1912 41 WP MM NOT_NAMED 1912-09-05 16:00:00 NR 20.5000 112.500 main 135 108 __________O___ -1 20.5000 112.500 4 11 310
1912246N16123 1912 41 WP MM NOT_NAMED 1912-09-05 18:00:00 NR 20.7259 112.207 main 108 56 __________P___ -1 20.7259 112.207 4 11 307
1912246N16123 1912 41 WP MM NOT_NAMED 1912-09-05 21:00:00 NR 21.0396 111.745 main 56 11 __________P___ -1 21.0396 111.745 4 11 304
1912246N16123 1912 41 WP MM NOT_NAMED 1912-09-06 00:00:00 NR 21.3309 111.262 main 11 0 __________P___ -1 21.3309 111.262 4 11 302
1912246N16123 1912 41 WP MM NOT_NAMED 1912-09-06 03:00:00 NR 21.6088 110.767 main 0 0 __________P___ -1 21.6088 110.767 4 11 301
1912246N16123 1912 41 WP MM NOT_NAMED 1912-09-06 04:00:00 NR 21.7000 110.600 main 0 __________O___ -1 21.7000 110.600 4 11 301

Digital Typhoon Data and Search

About IBTrACS Database

This database is a web-friendly format of International Best Track Archive for Climate Stewardship (IBTrACS), a global best track data archive curated by NOAA dating back to 1842.

Updated: 2021-10-25